createdAt,value
2023-05-18T00:01:41.005Z,77.37
2023-05-18T00:04:10.278Z,77.57
2023-05-18T00:06:38.932Z,77.88
2023-05-18T00:09:07.214Z,77.56
2023-05-18T00:11:40.055Z,77.76
2023-05-18T00:14:08.856Z,77.92
2023-05-18T00:16:37.141Z,77.85
2023-05-18T00:19:05.658Z,77.83
2023-05-18T00:21:35.455Z,77.97
2023-05-18T00:24:03.801Z,78.13
2023-05-18T00:26:32.198Z,78.02
2023-05-18T00:29:00.615Z,78.55
2023-05-18T00:31:28.781Z,78.20
2023-05-18T00:33:57.262Z,78.52
2023-05-18T00:36:25.843Z,78.45
2023-05-18T00:38:54.126Z,78.59
2023-05-18T00:41:23.009Z,78.57
2023-05-18T00:43:51.701Z,78.94
2023-05-18T00:46:20.399Z,79.10
2023-05-18T00:49:08.636Z,79.27
2023-05-18T00:51:56.880Z,79.51
2023-05-18T00:54:46.976Z,79.63
2023-05-18T00:57:36.957Z,79.81
2023-05-18T01:00:25.532Z,79.78
2023-05-18T01:03:15.597Z,79.73
2023-05-18T01:05:43.918Z,79.81
2023-05-18T01:08:32.430Z,79.70
2023-05-18T01:11:03.835Z,79.88
2023-05-18T01:13:55.854Z,80.36
2023-05-18T01:16:45.016Z,80.58
2023-05-18T01:19:14.626Z,80.42
2023-05-18T01:22:22.244Z,80.65
2023-05-18T01:25:15.048Z,80.85
2023-05-18T01:28:06.580Z,80.65
2023-05-18T01:30:55.331Z,80.68
2023-05-18T01:33:27.840Z,80.98
2023-05-18T01:35:56.282Z,81.22
2023-05-18T01:38:27.729Z,81.23
2023-05-18T01:40:56.266Z,81.22
2023-05-18T01:43:29.797Z,81.62
2023-05-18T01:46:02.195Z,81.51
2023-05-18T01:48:32.619Z,81.44
2023-05-18T01:51:02.339Z,81.68
2023-05-18T01:53:38.491Z,81.54
2023-05-18T01:56:08.055Z,81.71
2023-05-18T01:58:37.569Z,81.39
2023-05-18T02:01:06.196Z,81.68
2023-05-18T02:03:34.921Z,81.46
2023-05-18T02:06:03.381Z,81.19
2023-05-18T02:08:31.745Z,81.09
2023-05-18T02:11:00.219Z,81.09
2023-05-18T02:13:29.626Z,81.51
2023-05-18T02:15:58.057Z,81.32
2023-05-18T02:18:29.046Z,81.37
2023-05-18T02:21:00.907Z,81.47
2023-05-18T02:23:29.289Z,81.24
2023-05-18T02:25:57.615Z,81.61
2023-05-18T02:28:26.501Z,81.65
2023-05-18T02:30:54.953Z,81.90
2023-05-18T02:33:26.732Z,82.32
2023-05-18T02:36:15.057Z,81.71
2023-05-18T02:39:03.597Z,81.89
2023-05-18T02:41:51.777Z,81.63
2023-05-18T02:44:42.342Z,81.62
2023-05-18T02:47:33.994Z,82.14
2023-05-18T02:50:22.437Z,82.27
2023-05-18T02:53:11.489Z,82.53
2023-05-18T02:56:03.509Z,82.52
2023-05-18T02:58:44.092Z,83.01
2023-05-18T03:01:21.370Z,83.21
2023-05-18T03:03:53.252Z,83.54
2023-05-18T03:06:26.826Z,83.44
2023-05-18T03:08:56.467Z,83.44
2023-05-18T03:11:30.200Z,83.11
2023-05-18T03:13:58.742Z,83.63
2023-05-18T03:16:28.969Z,83.47
2023-05-18T03:18:59.432Z,83.69
2023-05-18T03:21:36.483Z,83.73
2023-05-18T03:24:04.965Z,83.73
2023-05-18T03:26:34.469Z,83.83
2023-05-18T03:29:03.047Z,84.20
2023-05-18T03:31:31.897Z,84.31
2023-05-18T03:34:01.207Z,84.16
2023-05-18T03:36:29.839Z,84.45
2023-05-18T03:38:58.205Z,84.22
2023-05-18T03:41:27.112Z,84.31
2023-05-18T03:43:55.994Z,84.82
2023-05-18T03:46:24.381Z,85.04
2023-05-18T03:48:54.135Z,84.77
2023-05-18T03:51:27.065Z,85.40
2023-05-18T03:53:55.554Z,85.41
2023-05-18T03:56:23.932Z,85.59
2023-05-18T03:58:53.232Z,86.65
2023-05-18T04:01:24.089Z,86.51
2023-05-18T04:03:56.642Z,87.06
2023-05-18T04:06:27.040Z,87.96
2023-05-18T04:08:55.353Z,88.68
2023-05-18T04:11:27.011Z,88.47
2023-05-18T04:14:35.149Z,88.50
2023-05-18T04:17:43.391Z,88.58
2023-05-18T04:20:51.568Z,88.81
2023-05-18T04:23:59.618Z,88.89
2023-05-18T04:27:07.674Z,89.31
2023-05-18T04:30:15.886Z,89.77
2023-05-18T04:33:24.115Z,89.50
2023-05-18T04:40:04.434Z,89.72
2023-05-18T04:43:12.913Z,89.71
2023-05-18T04:46:21.273Z,89.54
2023-05-18T04:48:50.327Z,88.78
2023-05-18T04:51:21.760Z,88.80
2023-05-18T04:57:22.642Z,87.49
2023-05-18T04:59:51.021Z,87.00
2023-05-18T05:02:23.082Z,86.44
2023-05-18T05:04:51.973Z,85.83
2023-05-18T05:07:20.250Z,85.47
2023-05-18T05:09:48.532Z,85.01
2023-05-18T05:12:17.013Z,84.63
2023-05-18T05:14:45.239Z,84.02
2023-05-18T05:17:13.777Z,83.86
2023-05-18T05:19:42.767Z,83.65
2023-05-18T05:22:11.557Z,83.48
2023-05-18T05:24:40.238Z,82.97
2023-05-18T05:27:08.514Z,82.28
2023-05-18T05:29:36.900Z,82.12
2023-05-18T05:32:05.746Z,81.28
2023-05-18T05:34:34.282Z,80.62
2023-05-18T05:37:42.355Z,79.94
2023-05-18T05:40:50.476Z,79.96
2023-05-18T05:43:19.090Z,79.50
2023-05-18T05:45:48.391Z,78.83
2023-05-18T05:48:17.092Z,78.66
2023-05-18T05:50:45.699Z,78.34
2023-05-18T05:53:18.129Z,78.12
2023-05-18T05:55:46.726Z,77.60
2023-05-18T05:58:18.068Z,77.68
2023-05-18T06:00:51.241Z,77.45
2023-05-18T06:03:19.800Z,76.78
2023-05-18T06:05:48.468Z,76.16
2023-05-18T06:08:19.000Z,75.93
2023-05-18T06:10:48.566Z,75.93
2023-05-18T06:13:18.111Z,74.96
2023-05-18T06:15:51.987Z,74.68
2023-05-18T06:18:20.558Z,74.38
2023-05-18T06:20:50.383Z,74.18
2023-05-18T06:23:23.005Z,74.08
2023-05-18T06:26:08.003Z,73.97
2023-05-18T06:28:39.079Z,74.02
2023-05-18T06:31:15.421Z,73.30
2023-05-18T06:33:48.337Z,72.72
2023-05-18T06:36:17.227Z,71.86
2023-05-18T06:38:45.913Z,71.85
2023-05-18T06:41:14.292Z,71.52
2023-05-18T06:43:43.178Z,71.39
2023-05-18T06:46:21.283Z,71.35
2023-05-18T06:48:52.657Z,70.41
2023-05-18T06:51:21.563Z,70.44
2023-05-18T06:53:50.460Z,69.65
2023-05-18T06:56:19.058Z,68.53
2023-05-18T06:58:47.837Z,68.61
2023-05-18T07:01:18.147Z,68.07
2023-05-18T07:03:47.160Z,67.62
2023-05-18T07:06:15.805Z,66.27
2023-05-18T07:08:44.612Z,66.15
2023-05-18T07:11:13.179Z,65.10
2023-05-18T07:13:41.458Z,64.92
2023-05-18T07:16:09.765Z,63.64
2023-05-18T07:18:38.675Z,63.02
2023-05-18T07:21:07.053Z,61.24
2023-05-18T07:23:35.591Z,61.65
2023-05-18T07:26:04.080Z,61.86
2023-05-18T07:28:32.254Z,62.04
2023-05-18T07:31:00.646Z,59.20
2023-05-18T07:33:29.332Z,58.46
2023-05-18T07:35:57.802Z,59.00
2023-05-18T07:38:26.485Z,58.29
2023-05-18T07:40:54.768Z,57.05
2023-05-18T07:43:23.364Z,56.46
2023-05-18T07:45:51.634Z,54.60
2023-05-18T07:48:20.113Z,55.24
2023-05-18T07:50:48.732Z,56.30
2023-05-18T07:53:16.983Z,54.93
2023-05-18T07:55:46.077Z,53.96
2023-05-18T07:58:15.029Z,53.14
2023-05-18T08:00:44.564Z,51.51
2023-05-18T08:03:13.120Z,51.33
2023-05-18T08:05:42.292Z,51.28
2023-05-18T08:08:15.297Z,51.90
2023-05-18T08:10:43.572Z,50.66
2023-05-18T08:13:12.105Z,49.64
2023-05-18T08:15:43.580Z,49.59
2023-05-18T08:18:11.967Z,48.42
2023-05-18T08:20:40.422Z,47.66
2023-05-18T08:23:09.010Z,45.74
2023-05-18T08:25:37.292Z,47.24
2023-05-18T08:28:05.636Z,47.44
2023-05-18T08:30:34.044Z,44.78
2023-05-18T08:33:03.427Z,45.41
2023-05-18T08:35:33.196Z,43.66
2023-05-18T08:38:02.975Z,44.75
2023-05-18T08:40:37.144Z,43.28
2023-05-18T08:43:12.167Z,44.15
2023-05-18T08:45:43.067Z,42.04
2023-05-18T08:48:13.351Z,41.69
2023-05-18T08:50:42.802Z,40.35
2023-05-18T08:53:12.265Z,38.22
2023-05-18T08:55:41.812Z,38.39
2023-05-18T08:58:14.094Z,37.22
2023-05-18T09:00:42.525Z,38.47
2023-05-18T09:03:11.224Z,37.15
2023-05-18T09:05:41.169Z,38.08
2023-05-18T09:08:10.058Z,37.25
2023-05-18T09:10:39.565Z,38.34
2023-05-18T09:13:08.457Z,37.74
2023-05-18T09:15:36.951Z,37.11
2023-05-18T09:18:05.649Z,37.26
2023-05-18T09:20:34.006Z,37.45
2023-05-18T09:23:02.899Z,38.49
2023-05-18T09:25:32.726Z,38.33
2023-05-18T09:28:03.661Z,37.26
2023-05-18T09:30:39.719Z,37.91
2023-05-18T09:33:18.179Z,36.46
2023-05-18T09:35:47.371Z,36.87
2023-05-18T09:38:22.250Z,36.78
2023-05-18T09:40:51.113Z,36.80
2023-05-18T09:43:19.762Z,37.35
2023-05-18T09:45:49.080Z,37.87
2023-05-18T09:48:18.014Z,37.05
2023-05-18T09:50:46.623Z,35.92
2023-05-18T09:53:15.213Z,36.34
2023-05-18T09:55:49.326Z,35.72
2023-05-18T09:58:17.751Z,35.00
2023-05-18T10:00:54.177Z,35.17
2023-05-18T10:03:23.950Z,35.47
2023-05-18T10:05:52.378Z,35.89
2023-05-18T10:08:20.908Z,33.50
2023-05-18T10:10:49.712Z,33.23
2023-05-18T10:13:20.326Z,32.78
2023-05-18T10:15:50.006Z,32.71
2023-05-18T10:18:21.897Z,32.11
2023-05-18T10:20:51.457Z,33.23
2023-05-18T10:23:20.456Z,32.53
2023-05-18T10:25:49.867Z,31.62
2023-05-18T10:28:21.315Z,31.88
2023-05-18T10:30:49.483Z,31.63
2023-05-18T10:33:28.601Z,31.71
2023-05-18T10:35:58.761Z,31.76
2023-05-18T10:38:28.170Z,32.66
2023-05-18T10:40:57.653Z,32.96
2023-05-18T10:43:29.015Z,32.69
2023-05-18T10:45:58.971Z,32.46
2023-05-18T10:48:29.207Z,33.06
2023-05-18T10:50:57.869Z,32.98
2023-05-18T10:53:29.692Z,33.23
2023-05-18T10:55:58.280Z,32.16
2023-05-18T10:58:27.256Z,32.36
2023-05-18T11:00:59.647Z,31.89
2023-05-18T11:03:28.757Z,32.31
2023-05-18T11:06:08.296Z,33.23
2023-05-18T11:08:50.980Z,33.02
2023-05-18T11:11:23.681Z,33.09
2023-05-18T11:13:52.162Z,33.13
2023-05-18T11:16:21.190Z,34.25
2023-05-18T11:18:50.915Z,33.85
2023-05-18T11:21:22.224Z,34.22
2023-05-18T11:24:09.447Z,34.67
2023-05-18T11:26:41.544Z,35.30
2023-05-18T11:29:29.412Z,35.44
2023-05-18T11:31:57.881Z,36.17
2023-05-18T11:34:45.175Z,36.23
2023-05-18T11:37:17.781Z,36.85
2023-05-18T11:40:08.516Z,37.39
2023-05-18T11:42:38.660Z,37.83
2023-05-18T11:45:08.385Z,36.83
2023-05-18T11:47:37.097Z,36.92
2023-05-18T11:50:10.526Z,37.41
2023-05-18T11:52:48.584Z,37.47
2023-05-18T11:55:18.311Z,37.75
2023-05-18T11:57:53.200Z,38.67
2023-05-18T12:00:21.901Z,37.63
2023-05-18T12:02:53.065Z,38.69
2023-05-18T12:05:21.628Z,36.11
2023-05-18T12:07:53.786Z,35.78
2023-05-18T12:10:22.428Z,35.76
2023-05-18T12:12:53.843Z,37.22
2023-05-18T12:15:22.997Z,35.71
2023-05-18T12:17:51.903Z,35.08
2023-05-18T12:20:21.604Z,34.24
2023-05-18T12:22:52.330Z,33.56
2023-05-18T12:25:21.817Z,31.95
2023-05-18T12:27:51.826Z,32.43
2023-05-18T12:30:21.732Z,31.44
2023-05-18T12:32:54.424Z,30.12
2023-05-18T12:35:29.854Z,31.25
2023-05-18T12:38:00.676Z,32.14
2023-05-18T12:40:38.704Z,31.66
2023-05-18T12:43:07.099Z,32.44
2023-05-18T12:45:35.778Z,32.82
2023-05-18T12:48:05.004Z,33.05
2023-05-18T12:50:33.745Z,30.48
2023-05-18T12:53:02.124Z,29.50
2023-05-18T12:55:32.844Z,30.78
2023-05-18T12:58:06.058Z,30.38
2023-05-18T13:00:38.012Z,30.13
2023-05-18T13:03:07.911Z,28.79
2023-05-18T13:05:36.419Z,29.40
2023-05-18T13:08:05.000Z,28.98
2023-05-18T13:10:33.684Z,28.82
2023-05-18T13:13:03.882Z,29.10
2023-05-18T13:15:36.613Z,29.43
2023-05-18T13:18:07.119Z,29.64
2023-05-18T13:20:43.800Z,30.00
2023-05-18T13:23:13.104Z,31.39
2023-05-18T13:25:41.578Z,32.02
2023-05-18T13:28:13.562Z,31.89
2023-05-18T13:30:42.856Z,31.78
2023-05-18T13:33:12.486Z,32.36
2023-05-18T13:35:44.736Z,30.70
2023-05-18T13:38:13.850Z,30.85
2023-05-18T13:40:42.661Z,31.43
2023-05-18T13:43:13.510Z,30.98
2023-05-18T13:45:42.423Z,31.08
2023-05-18T13:48:11.359Z,31.06
2023-05-18T13:50:39.938Z,31.93
2023-05-18T13:53:08.344Z,31.34
2023-05-18T13:55:37.219Z,31.81
2023-05-18T13:58:06.539Z,31.26
2023-05-18T14:00:36.624Z,31.52
2023-05-18T14:03:05.217Z,31.62
2023-05-18T14:05:33.798Z,31.73
2023-05-18T14:08:02.186Z,31.45
2023-05-18T14:10:31.165Z,30.57
2023-05-18T14:12:59.650Z,29.75
2023-05-18T14:15:27.927Z,29.60
2023-05-18T14:17:56.239Z,29.86
2023-05-18T14:20:24.735Z,31.23
2023-05-18T14:22:53.115Z,31.61
2023-05-18T14:25:21.666Z,30.99
2023-05-18T14:27:50.139Z,30.10
2023-05-18T14:30:18.358Z,28.95
2023-05-18T14:32:47.465Z,29.37
2023-05-18T14:35:16.407Z,28.65
2023-05-18T14:37:44.614Z,28.18
2023-05-18T14:40:13.271Z,28.21
2023-05-18T14:42:41.611Z,28.95
2023-05-18T14:45:10.339Z,29.22
2023-05-18T14:47:38.602Z,29.15
2023-05-18T14:50:07.130Z,27.13
2023-05-18T14:52:35.275Z,27.68
2023-05-18T14:55:03.471Z,28.26
2023-05-18T14:57:32.545Z,28.39
2023-05-18T15:00:00.943Z,28.80
2023-05-18T15:02:29.389Z,28.34
2023-05-18T15:05:37.724Z,27.81
2023-05-18T15:08:06.461Z,27.88
2023-05-18T15:10:34.689Z,27.47
2023-05-18T15:13:03.073Z,27.16
2023-05-18T15:15:31.860Z,27.49
2023-05-18T15:18:00.399Z,27.54
2023-05-18T15:20:29.127Z,27.69
2023-05-18T15:22:57.735Z,28.19
2023-05-18T15:25:26.613Z,27.84
2023-05-18T15:27:55.138Z,26.50
2023-05-18T15:30:23.479Z,27.26
2023-05-18T15:32:52.201Z,27.07
2023-05-18T15:35:20.950Z,26.16
2023-05-18T15:37:50.503Z,26.33
2023-05-18T15:40:19.083Z,26.11
2023-05-18T15:42:47.342Z,26.54
2023-05-18T15:45:15.811Z,26.65
2023-05-18T15:47:44.176Z,25.95
2023-05-18T15:50:13.634Z,26.50
2023-05-18T15:52:42.276Z,25.84
2023-05-18T15:55:11.071Z,26.03
2023-05-18T15:57:39.454Z,26.10
2023-05-18T16:00:08.804Z,25.82
2023-05-18T16:02:43.126Z,25.28
2023-05-18T16:05:11.760Z,25.19
2023-05-18T16:07:42.597Z,25.39
2023-05-18T16:10:11.495Z,25.50
2023-05-18T16:12:39.665Z,26.05
2023-05-18T16:15:08.254Z,26.17
2023-05-18T16:17:36.652Z,26.84
2023-05-18T16:20:05.355Z,26.70
2023-05-18T16:22:33.593Z,26.83
2023-05-18T16:25:02.007Z,26.94
2023-05-18T16:27:30.152Z,27.53
2023-05-18T16:29:58.396Z,27.72
2023-05-18T16:32:28.023Z,28.19
2023-05-18T16:34:56.420Z,28.80
2023-05-18T16:37:25.112Z,28.70
2023-05-18T16:39:53.636Z,29.23
2023-05-18T16:42:23.090Z,29.27
2023-05-18T16:44:51.478Z,29.42
2023-05-18T16:47:19.868Z,29.46
2023-05-18T16:49:48.178Z,30.09
2023-05-18T16:52:18.468Z,29.92
2023-05-18T16:54:47.163Z,30.32
2023-05-18T16:57:16.046Z,30.64
2023-05-18T16:59:44.326Z,31.06
2023-05-18T17:02:16.270Z,31.52
2023-05-18T17:04:50.145Z,31.95
2023-05-18T17:07:18.789Z,32.33
2023-05-18T17:09:47.015Z,32.82
2023-05-18T17:12:15.537Z,33.64
2023-05-18T17:14:44.225Z,34.37
2023-05-18T17:17:12.824Z,34.92
2023-05-18T17:19:41.799Z,35.42
2023-05-18T17:22:10.295Z,35.97
2023-05-18T17:24:38.773Z,36.60
2023-05-18T17:27:07.303Z,36.93
2023-05-18T17:30:15.484Z,37.93
2023-05-18T17:33:23.168Z,39.45
2023-05-18T17:35:51.854Z,41.10
2023-05-18T17:38:22.791Z,42.24
2023-05-18T17:40:51.075Z,42.77
2023-05-18T17:43:19.565Z,43.23
2023-05-18T17:45:48.177Z,43.59
2023-05-18T17:48:16.640Z,43.67
2023-05-18T17:50:45.682Z,45.09
2023-05-18T17:53:14.146Z,45.73
2023-05-18T17:55:42.690Z,45.73
2023-05-18T17:58:11.071Z,45.76
2023-05-18T18:00:39.448Z,46.64
2023-05-18T18:03:07.856Z,47.10
2023-05-18T18:05:36.310Z,50.00
2023-05-18T18:08:04.899Z,51.05
2023-05-18T18:10:33.513Z,50.43
2023-05-18T18:13:02.172Z,50.43
2023-05-18T18:15:30.958Z,51.50
2023-05-18T18:17:59.395Z,51.63
2023-05-18T18:20:27.616Z,51.55
2023-05-18T18:22:55.999Z,51.85
2023-05-18T18:25:24.460Z,50.87
2023-05-18T18:27:52.761Z,51.56
2023-05-18T18:31:01.035Z,51.41
2023-05-18T18:33:29.935Z,51.64
2023-05-18T18:35:59.105Z,52.00
2023-05-18T18:38:29.012Z,52.33
2023-05-18T18:41:01.684Z,52.45
2023-05-18T18:43:30.272Z,53.30
2023-05-18T18:45:59.217Z,53.14
2023-05-18T18:48:27.669Z,53.24
2023-05-18T18:50:57.030Z,53.51
2023-05-18T18:53:26.025Z,53.96
2023-05-18T18:55:54.549Z,53.99
2023-05-18T18:58:24.524Z,54.72
2023-05-18T19:00:53.000Z,54.55
2023-05-18T19:04:01.008Z,52.69
2023-05-18T19:06:30.942Z,52.58
2023-05-18T19:08:59.043Z,52.69
2023-05-18T19:11:27.202Z,53.30
2023-05-18T19:13:56.794Z,53.11
2023-05-18T19:16:25.077Z,53.30
2023-05-18T19:19:10.255Z,52.85
2023-05-18T19:22:07.039Z,53.14
2023-05-18T19:25:15.083Z,53.80
2023-05-18T19:28:23.090Z,53.94
2023-05-18T19:31:31.234Z,54.70
2023-05-18T19:34:00.625Z,55.72
2023-05-18T19:36:29.109Z,56.18
2023-05-18T19:38:57.791Z,57.10
2023-05-18T19:41:26.924Z,56.96
2023-05-18T19:43:55.350Z,57.29
2023-05-18T19:46:23.915Z,57.23
2023-05-18T19:48:54.157Z,57.41
2023-05-18T19:51:24.067Z,57.63
2023-05-18T19:53:52.308Z,57.17
2023-05-18T19:56:22.053Z,56.49
2023-05-18T19:58:50.597Z,56.92
2023-05-18T20:01:19.479Z,58.89
2023-05-18T20:03:48.273Z,58.12
2023-05-18T20:06:53.587Z,57.92
2023-05-18T20:09:23.088Z,57.44
2023-05-18T20:11:51.680Z,57.73
2023-05-18T20:15:00.182Z,58.62
2023-05-18T20:18:06.783Z,61.43
2023-05-18T20:20:36.384Z,62.35
2023-05-18T20:23:44.537Z,63.30
2023-05-18T20:26:12.911Z,60.72
2023-05-18T20:28:41.355Z,63.05
2023-05-18T20:31:10.835Z,62.63
2023-05-18T20:33:39.758Z,62.96
2023-05-18T20:36:09.195Z,63.77
2023-05-18T20:38:38.916Z,63.72
2023-05-18T20:41:08.279Z,62.96
2023-05-18T20:43:37.984Z,62.34
2023-05-18T20:46:06.602Z,63.07
2023-05-18T20:48:36.124Z,63.26
2023-05-18T20:51:04.278Z,63.14
2023-05-18T20:53:33.157Z,63.12
2023-05-18T20:56:01.732Z,63.18
2023-05-18T20:58:29.905Z,63.34
2023-05-18T21:00:58.283Z,64.24
2023-05-18T21:04:06.729Z,63.09
2023-05-18T21:06:35.595Z,63.75
2023-05-18T21:09:43.694Z,63.12
2023-05-18T21:12:51.758Z,63.36
2023-05-18T21:15:59.914Z,63.57
2023-05-18T21:19:09.048Z,63.39
2023-05-18T21:22:17.307Z,64.60
2023-05-18T21:25:25.446Z,63.69
2023-05-18T21:28:36.281Z,63.88
2023-05-18T21:31:49.155Z,64.34
2023-05-18T21:34:57.192Z,64.10
2023-05-18T21:38:05.332Z,64.61
2023-05-18T21:40:33.900Z,64.73
2023-05-18T21:46:36.049Z,64.73
2023-05-18T21:49:44.135Z,64.31
2023-05-18T21:52:52.228Z,65.42
2023-05-18T21:56:00.576Z,65.22
2023-05-18T22:03:05.344Z,65.46
2023-05-18T22:06:13.522Z,65.40
2023-05-18T22:09:21.733Z,65.86
2023-05-18T22:12:30.051Z,65.93
2023-05-18T22:15:22.912Z,66.17
2023-05-18T22:18:31.222Z,66.09
2023-05-18T22:20:59.616Z,65.86
2023-05-18T22:23:27.985Z,66.85
2023-05-18T22:25:56.466Z,66.83
2023-05-18T22:29:04.678Z,67.20
2023-05-18T22:32:12.765Z,67.06
2023-05-18T22:35:21.003Z,67.52
2023-05-18T22:37:49.722Z,67.17
2023-05-18T22:40:57.948Z,67.49
2023-05-18T22:44:06.158Z,67.17
2023-05-18T22:46:34.543Z,67.25
2023-05-18T22:49:42.807Z,67.55
2023-05-18T22:52:11.187Z,67.00
2023-05-18T22:55:19.519Z,67.07
2023-05-18T22:57:48.132Z,67.76
2023-05-18T23:00:17.449Z,67.37
2023-05-18T23:03:26.048Z,67.40
2023-05-18T23:10:06.174Z,67.04
2023-05-18T23:12:34.685Z,67.49
2023-05-18T23:15:04.351Z,67.11
2023-05-18T23:17:33.646Z,67.11
2023-05-18T23:20:04.871Z,67.49
2023-05-18T23:22:34.968Z,67.38
2023-05-18T23:25:04.894Z,67.30
2023-05-18T23:27:33.481Z,67.63
2023-05-18T23:30:01.752Z,67.61
2023-05-18T23:32:30.298Z,67.44
2023-05-18T23:34:59.733Z,67.09
2023-05-18T23:37:29.144Z,67.90
2023-05-18T23:39:59.268Z,67.85
2023-05-18T23:42:27.545Z,68.14
2023-05-18T23:45:35.867Z,68.19
2023-05-18T23:48:44.178Z,68.21
2023-05-18T23:51:16.748Z,68.20
2023-05-18T23:54:24.786Z,68.68
2023-05-18T23:57:32.941Z,68.88
